Forside
METAR-TAF:

METAR-TAF

Lufthavne :

La Crosse, Wisconsin, USA

Breddekreds: 43-52-46N, længdekreds: 091-15-24W, højde: 199 m

Aktuelle vejr

Denne rapport blev lavet for 31 minutter siden, kl. 19:53 UTC
Vind 9 kt fra syd
Temperatur 4°C
Fugtighed 60%
Tryk 1016 hPa
Sigt: 16.1 km
skyfri

METAR: KLSE 221953Z 18009KT 10SM CLR 04/M03 A3001 RMK AO2 SLP174 T00441033

Tid: 14:24 (20:24 UTC)

Vejrudsigter

Denne rapport blev lavet for 3 timer og 2 minutter siden, kl. 17:22 UTC
Foreløbig gælder fra 22 på 18 UTC til 23 på 18 UTC
Vind 10 kt fra syd
Sigt: 10 km
Brudte skyer i en højde af 20000 ft
Fra 23 på 0200 UTC
Vind 5 kt fra syd
Sigt: 10 km
Spredte skyer i en højde af 25000 ft
Fra 23 på 0700 UTC
Vind 8 kt fra vestsydvest
Sigt: 10 km
skyfri

TAF: KLSE 221722Z 2218/2318 19010KT P6SM BKN200 FM230200 18005KT P6SM SCT250 FM230700 24008KT P6SM SKC

Vejrobservationer og prognoser fra mere end 4000 lufthavne (METAR og TAF).

De gule og røde prikker repræsenterer de meteorologiske stationer.

Flyt musen over at se navnet på stationen.

Så klik over at se vejr observationer og prognoser.

At skifte det kort: Klik på de grønne knapper med et sort kors for at zoome ind; på den grønne knap med en bindestreg for at zoome ud; eller på de grønne pile for tilstødende kort.


METAR-TAF: